sensor_id;sensor_type;location;lat;lon;timestamp;temperature;humidity
27368;DHT22;14839;48.106;11.618;2023-03-03T05:02:08;0.90;94.60
27368;DHT22;14839;48.106;11.618;2023-03-03T05:04:34;1.00;94.60
27368;DHT22;14839;48.106;11.618;2023-03-03T05:07:00;1.00;94.60
27368;DHT22;14839;48.106;11.618;2023-03-03T05:09:26;1.00;94.60
27368;DHT22;14839;48.106;11.618;2023-03-03T05:11:52;1.00;94.60
27368;DHT22;14839;48.106;11.618;2023-03-03T05:14:18;1.00;94.60
27368;DHT22;14839;48.106;11.618;2023-03-03T05:16:43;1.00;94.60
27368;DHT22;14839;48.106;11.618;2023-03-03T05:19:09;1.00;94.60
27368;DHT22;14839;48.106;11.618;2023-03-03T05:21:34;1.00;94.60
27368;DHT22;14839;48.106;11.618;2023-03-03T05:24:00;1.00;94.60
27368;DHT22;14839;48.106;11.618;2023-03-03T05:26:25;1.00;94.60
27368;DHT22;14839;48.106;11.618;2023-03-03T05:28:51;1.00;94.60
27368;DHT22;14839;48.106;11.618;2023-03-03T05:31:16;1.10;94.60
27368;DHT22;14839;48.106;11.618;2023-03-03T05:33:42;1.10;94.60
27368;DHT22;14839;48.106;11.618;2023-03-03T05:36:08;1.10;94.60
27368;DHT22;14839;48.106;11.618;2023-03-03T05:38:33;1.20;94.60
27368;DHT22;14839;48.106;11.618;2023-03-03T05:40:59;1.20;94.60
27368;DHT22;14839;48.106;11.618;2023-03-03T05:43:25;1.20;94.60
27368;DHT22;14839;48.106;11.618;2023-03-03T05:45:57;1.20;94.60
27368;DHT22;14839;48.106;11.618;2023-03-03T05:48:23;1.20;94.60
27368;DHT22;14839;48.106;11.618;2023-03-03T05:50:48;1.20;94.60
27368;DHT22;14839;48.106;11.618;2023-03-03T05:53:14;1.20;94.60
27368;DHT22;14839;48.106;11.618;2023-03-03T05:55:40;1.20;94.60
27368;DHT22;14839;48.106;11.618;2023-03-03T05:58:05;1.20;94.60
27368;DHT22;14839;48.106;11.618;2023-03-03T06:00:31;1.30;94.60
27368;DHT22;14839;48.106;11.618;2023-03-03T06:02:56;1.30;94.60
27368;DHT22;14839;48.106;11.618;2023-03-03T06:05:22;1.40;94.60
27368;DHT22;14839;48.106;11.618;2023-03-03T06:07:48;1.40;94.60
27368;DHT22;14839;48.106;11.618;2023-03-03T06:10:13;1.40;94.60
27368;DHT22;14839;48.106;11.618;2023-03-03T06:12:39;1.40;94.60
27368;DHT22;14839;48.106;11.618;2023-03-03T06:15:07;1.50;94.60
27368;DHT22;14839;48.106;11.618;2023-03-03T06:17:33;1.40;94.60
27368;DHT22;14839;48.106;11.618;2023-03-03T06:19:58;1.40;94.60
27368;DHT22;14839;48.106;11.618;2023-03-03T06:22:24;1.40;94.60
27368;DHT22;14839;48.106;11.618;2023-03-03T06:24:50;1.40;94.60
27368;DHT22;14839;48.106;11.618;2023-03-03T06:27:17;1.40;94.60
27368;DHT22;14839;48.106;11.618;2023-03-03T06:29:42;1.40;94.60
27368;DHT22;14839;48.106;11.618;2023-03-03T06:32:08;1.40;94.60
27368;DHT22;14839;48.106;11.618;2023-03-03T06:34:34;1.40;94.60
27368;DHT22;14839;48.106;11.618;2023-03-03T06:36:59;1.50;94.60
27368;DHT22;14839;48.106;11.618;2023-03-03T06:39:25;1.50;94.60
27368;DHT22;14839;48.106;11.618;2023-03-03T06:41:50;1.70;94.60
27368;DHT22;14839;48.106;11.618;2023-03-03T06:44:16;1.70;94.60
27368;DHT22;14839;48.106;11.618;2023-03-03T06:46:42;1.80;94.60
27368;DHT22;14839;48.106;11.618;2023-03-03T06:49:07;1.80;94.60
27368;DHT22;14839;48.106;11.618;2023-03-03T06:51:35;1.80;94.60
27368;DHT22;14839;48.106;11.618;2023-03-03T06:54:10;1.90;94.60
27368;DHT22;14839;48.106;11.618;2023-03-03T06:56:37;2.00;94.60
27368;DHT22;14839;48.106;11.618;2023-03-03T06:59:17;2.00;94.60
27368;DHT22;14839;48.106;11.618;2023-03-03T07:01:46;2.10;94.60
27368;DHT22;14839;48.106;11.618;2023-03-03T07:04:30;2.20;94.60
27368;DHT22;14839;48.106;11.618;2023-03-03T07:07:04;2.30;94.60
27368;DHT22;14839;48.106;11.618;2023-03-03T07:09:32;2.30;94.60
27368;DHT22;14839;48.106;11.618;2023-03-03T07:12:08;2.40;94.60
27368;DHT22;14839;48.106;11.618;2023-03-03T07:14:41;2.40;94.60
27368;DHT22;14839;48.106;11.618;2023-03-03T07:17:27;2.40;94.60
27368;DHT22;14839;48.106;11.618;2023-03-03T07:19:52;2.50;94.60
27368;DHT22;14839;48.106;11.618;2023-03-03T07:22:24;2.50;94.60
27368;DHT22;14839;48.106;11.618;2023-03-03T07:24:52;2.60;94.60
27368;DHT22;14839;48.106;11.618;2023-03-03T07:27:25;2.60;94.60
27368;DHT22;14839;48.106;11.618;2023-03-03T07:30:16;2.60;94.60
27368;DHT22;14839;48.106;11.618;2023-03-03T07:32:42;2.60;94.60
27368;DHT22;14839;48.106;11.618;2023-03-03T07:37:46;2.70;94.60
27368;DHT22;14839;48.106;11.618;2023-03-03T07:42:59;2.90;94.60
27368;DHT22;14839;48.106;11.618;2023-03-03T07:45:33;3.00;94.60
27368;DHT22;14839;48.106;11.618;2023-03-03T07:48:24;3.00;94.60
27368;DHT22;14839;48.106;11.618;2023-03-03T07:50:51;3.00;94.60
27368;DHT22;14839;48.106;11.618;2023-03-03T07:53:28;3.00;94.60
27368;DHT22;14839;48.106;11.618;2023-03-03T07:55:55;3.00;94.60
27368;DHT22;14839;48.106;11.618;2023-03-03T07:58:40;3.10;94.60
27368;DHT22;14839;48.106;11.618;2023-03-03T08:04:00;3.20;94.60
27368;DHT22;14839;48.106;11.618;2023-03-03T08:06:53;3.30;94.60
27368;DHT22;14839;48.106;11.618;2023-03-03T08:10:25;3.40;94.60
27368;DHT22;14839;48.106;11.618;2023-03-03T08:12:38;3.50;94.60
27368;DHT22;14839;48.106;11.618;2023-03-03T08:15:16;3.60;94.60
27368;DHT22;14839;48.106;11.618;2023-03-03T08:17:43;3.80;94.60
27368;DHT22;14839;48.106;11.618;2023-03-03T08:22:59;3.90;94.60
27368;DHT22;14839;48.106;11.618;2023-03-03T08:25:25;4.00;94.60
27368;DHT22;14839;48.106;11.618;2023-03-03T08:27:51;4.20;94.60
27368;DHT22;14839;48.106;11.618;2023-03-03T08:30:16;4.20;94.60
27368;DHT22;14839;48.106;11.618;2023-03-03T08:32:42;4.30;94.60
27368;DHT22;14839;48.106;11.618;2023-03-03T08:35:08;4.30;94.60
27368;DHT22;14839;48.106;11.618;2023-03-03T08:37:34;4.60;94.60
27368;DHT22;14839;48.106;11.618;2023-03-03T08:39:59;4.70;94.60
27368;DHT22;14839;48.106;11.618;2023-03-03T08:42:25;4.70;94.60
27368;DHT22;14839;48.106;11.618;2023-03-03T08:44:50;4.90;94.60
27368;DHT22;14839;48.106;11.618;2023-03-03T08:47:16;4.80;94.60
27368;DHT22;14839;48.106;11.618;2023-03-03T08:49:41;4.80;94.60
27368;DHT22;14839;48.106;11.618;2023-03-03T08:52:07;4.90;94.60
27368;DHT22;14839;48.106;11.618;2023-03-03T08:54:33;5.10;94.60
27368;DHT22;14839;48.106;11.618;2023-03-03T08:56:58;5.20;94.60
27368;DHT22;14839;48.106;11.618;2023-03-03T08:59:24;5.10;94.60
27368;DHT22;14839;48.106;11.618;2023-03-03T09:01:49;5.20;94.60
27368;DHT22;14839;48.106;11.618;2023-03-03T09:04:15;5.40;94.60
27368;DHT22;14839;48.106;11.618;2023-03-03T09:06:40;5.50;94.60
27368;DHT22;14839;48.106;11.618;2023-03-03T09:09:06;5.50;94.60
27368;DHT22;14839;48.106;11.618;2023-03-03T09:11:32;5.60;94.60
27368;DHT22;14839;48.106;11.618;2023-03-03T09:14:16;5.60;94.60
27368;DHT22;14839;48.106;11.618;2023-03-03T09:16:49;5.70;94.60
27368;DHT22;14839;48.106;11.618;2023-03-03T09:19:26;5.80;94.60
27368;DHT22;14839;48.106;11.618;2023-03-03T09:21:56;5.80;94.60
27368;DHT22;14839;48.106;11.618;2023-03-03T09:26:48;5.90;94.60
27368;DHT22;14839;48.106;11.618;2023-03-03T09:31:48;5.90;94.60
27368;DHT22;14839;48.106;11.618;2023-03-03T09:34:24;6.20;94.30
27368;DHT22;14839;48.106;11.618;2023-03-03T09:36:53;6.30;92.80
27368;DHT22;14839;48.106;11.618;2023-03-03T09:39:28;6.20;93.50
27368;DHT22;14839;48.106;11.618;2023-03-03T09:47:37;6.30;93.70
27368;DHT22;14839;48.106;11.618;2023-03-03T09:58:04;6.60;93.10
27368;DHT22;14839;48.106;11.618;2023-03-03T10:00:58;6.80;92.20
27368;DHT22;14839;48.106;11.618;2023-03-03T10:15:12;6.90;91.80
27368;DHT22;14839;48.106;11.618;2023-03-03T10:17:51;7.20;90.80
27368;DHT22;14839;48.106;11.618;2023-03-03T10:26:20;7.20;89.20
27368;DHT22;14839;48.106;11.618;2023-03-03T10:42:50;6.90;91.40
27368;DHT22;14839;48.106;11.618;2023-03-03T10:45:28;6.90;90.90
27368;DHT22;14839;48.106;11.618;2023-03-03T10:48:03;6.90;91.60
27368;DHT22;14839;48.106;11.618;2023-03-03T10:50:48;7.00;91.90
27368;DHT22;14839;48.106;11.618;2023-03-03T10:53:33;7.20;91.00
27368;DHT22;14839;48.106;11.618;2023-03-03T10:58:50;7.30;89.00
27368;DHT22;14839;48.106;11.618;2023-03-03T11:01:25;7.30;89.30
27368;DHT22;14839;48.106;11.618;2023-03-03T11:04:06;7.60;89.30
27368;DHT22;14839;48.106;11.618;2023-03-03T11:06:50;7.60;88.60
27368;DHT22;14839;48.106;11.618;2023-03-03T11:12:22;7.90;87.70
27368;DHT22;14839;48.106;11.618;2023-03-03T11:20:02;7.90;87.40
27368;DHT22;14839;48.106;11.618;2023-03-03T11:27:59;7.80;88.30
27368;DHT22;14839;48.106;11.618;2023-03-03T11:33:57;8.20;86.60
27368;DHT22;14839;48.106;11.618;2023-03-03T11:36:35;8.50;85.60
27368;DHT22;14839;48.106;11.618;2023-03-03T11:39:09;8.40;84.80
27368;DHT22;14839;48.106;11.618;2023-03-03T11:41:40;8.60;84.40
27368;DHT22;14839;48.106;11.618;2023-03-03T11:44:36;8.60;84.10
27368;DHT22;14839;48.106;11.618;2023-03-03T11:47:20;8.80;82.90
27368;DHT22;14839;48.106;11.618;2023-03-03T11:50:11;8.60;84.50
27368;DHT22;14839;48.106;11.618;2023-03-03T11:56:04;8.40;84.50
27368;DHT22;14839;48.106;11.618;2023-03-03T11:58:40;8.40;83.80
27368;DHT22;14839;48.106;11.618;2023-03-03T12:04:12;8.50;85.90
27368;DHT22;14839;48.106;11.618;2023-03-03T12:09:51;9.20;83.20
27368;DHT22;14839;48.106;11.618;2023-03-03T12:12:35;9.10;83.30
27368;DHT22;14839;48.106;11.618;2023-03-03T12:15:25;9.10;83.00
27368;DHT22;14839;48.106;11.618;2023-03-03T12:20:42;8.50;84.20
27368;DHT22;14839;48.106;11.618;2023-03-03T12:26:05;9.10;83.00
27368;DHT22;14839;48.106;11.618;2023-03-03T12:28:59;9.20;82.30
27368;DHT22;14839;48.106;11.618;2023-03-03T12:31:43;9.50;81.70
27368;DHT22;14839;48.106;11.618;2023-03-03T12:34:28;9.40;81.20
27368;DHT22;14839;48.106;11.618;2023-03-03T12:37:01;9.20;82.70
27368;DHT22;14839;48.106;11.618;2023-03-03T12:42:45;9.40;81.40
27368;DHT22;14839;48.106;11.618;2023-03-03T12:45:46;9.10;82.70
27368;DHT22;14839;48.106;11.618;2023-03-03T12:48:20;9.00;82.10
27368;DHT22;14839;48.106;11.618;2023-03-03T12:51:03;8.90;83.60
27368;DHT22;14839;48.106;11.618;2023-03-03T12:56:08;9.20;82.90
27368;DHT22;14839;48.106;11.618;2023-03-03T13:07:42;9.10;82.90
27368;DHT22;14839;48.106;11.618;2023-03-03T13:13:41;9.20;82.10
27368;DHT22;14839;48.106;11.618;2023-03-03T13:15:57;9.30;82.70
27368;DHT22;14839;48.106;11.618;2023-03-03T13:21:57;9.30;81.50
27368;DHT22;14839;48.106;11.618;2023-03-03T13:27:24;9.10;81.80
27368;DHT22;14839;48.106;11.618;2023-03-03T13:30:21;9.30;82.00
27368;DHT22;14839;48.106;11.618;2023-03-03T13:33:09;9.20;81.40
27368;DHT22;14839;48.106;11.618;2023-03-03T13:38:09;8.90;83.60
27368;DHT22;14839;48.106;11.618;2023-03-03T13:40:49;8.80;84.20
27368;DHT22;14839;48.106;11.618;2023-03-03T13:43:18;8.80;84.20
27368;DHT22;14839;48.106;11.618;2023-03-03T13:45:55;8.70;83.80
27368;DHT22;14839;48.106;11.618;2023-03-03T13:48:27;8.50;83.20
27368;DHT22;14839;48.106;11.618;2023-03-03T13:50:57;8.30;85.00
27368;DHT22;14839;48.106;11.618;2023-03-03T13:59:43;8.30;85.10
27368;DHT22;14839;48.106;11.618;2023-03-03T14:07:40;8.30;85.90
27368;DHT22;14839;48.106;11.618;2023-03-03T14:12:59;8.50;86.30
27368;DHT22;14839;48.106;11.618;2023-03-03T14:15:38;8.50;85.30
27368;DHT22;14839;48.106;11.618;2023-03-03T14:21:15;8.30;84.20
27368;DHT22;14839;48.106;11.618;2023-03-03T14:24:02;8.20;85.10
27368;DHT22;14839;48.106;11.618;2023-03-03T14:26:44;8.30;85.60
27368;DHT22;14839;48.106;11.618;2023-03-03T14:31:59;8.10;85.30
27368;DHT22;14839;48.106;11.618;2023-03-03T14:37:09;8.20;86.00
27368;DHT22;14839;48.106;11.618;2023-03-03T14:39:44;8.40;85.90
27368;DHT22;14839;48.106;11.618;2023-03-03T14:44:56;8.50;83.50
27368;DHT22;14839;48.106;11.618;2023-03-03T14:47:26;8.50;83.80
27368;DHT22;14839;48.106;11.618;2023-03-03T14:49:53;8.50;84.70
27368;DHT22;14839;48.106;11.618;2023-03-03T14:52:22;8.50;84.20
27368;DHT22;14839;48.106;11.618;2023-03-03T14:54:51;8.50;84.10
27368;DHT22;14839;48.106;11.618;2023-03-03T15:00:00;8.50;84.70
27368;DHT22;14839;48.106;11.618;2023-03-03T15:05:29;8.50;83.90
27368;DHT22;14839;48.106;11.618;2023-03-03T15:10:31;8.40;84.80
27368;DHT22;14839;48.106;11.618;2023-03-03T15:12:58;8.40;85.10
27368;DHT22;14839;48.106;11.618;2023-03-03T15:15:25;8.30;83.80
27368;DHT22;14839;48.106;11.618;2023-03-03T15:20:40;8.40;83.90
27368;DHT22;14839;48.106;11.618;2023-03-03T15:28:40;8.70;82.90
27368;DHT22;14839;48.106;11.618;2023-03-03T15:31:30;8.70;82.60
27368;DHT22;14839;48.106;11.618;2023-03-03T15:42:59;8.70;82.60
27368;DHT22;14839;48.106;11.618;2023-03-03T15:56:47;8.40;83.50
27368;DHT22;14839;48.106;11.618;2023-03-03T16:02:18;8.50;82.30
27368;DHT22;14839;48.106;11.618;2023-03-03T16:19:12;7.90;85.00
27368;DHT22;14839;48.106;11.618;2023-03-03T16:32:45;7.50;85.90
27368;DHT22;14839;48.106;11.618;2023-03-03T16:35:22;7.50;86.80
27368;DHT22;14839;48.106;11.618;2023-03-03T16:38:01;7.40;87.10
27368;DHT22;14839;48.106;11.618;2023-03-03T16:45:57;7.30;88.00
27368;DHT22;14839;48.106;11.618;2023-03-03T16:49:36;7.20;88.30
27368;DHT22;14839;48.106;11.618;2023-03-03T16:54:50;7.00;89.20
27368;DHT22;14839;48.106;11.618;2023-03-03T16:57:33;6.90;89.80
27368;DHT22;14839;48.106;11.618;2023-03-03T17:02:58;6.70;90.30
27368;DHT22;14839;48.106;11.618;2023-03-03T17:05:51;6.70;90.70
27368;DHT22;14839;48.106;11.618;2023-03-03T17:11:16;6.50;91.10
27368;DHT22;14839;48.106;11.618;2023-03-03T17:19:52;6.20;91.80
27368;DHT22;14839;48.106;11.618;2023-03-03T17:25:22;6.00;92.60
27368;DHT22;14839;48.106;11.618;2023-03-03T17:30:47;5.80;93.20
27368;DHT22;14839;48.106;11.618;2023-03-03T17:35:56;5.60;94.20
27368;DHT22;14839;48.106;11.618;2023-03-03T17:40:57;5.50;94.30
27368;DHT22;14839;48.106;11.618;2023-03-03T17:46:25;5.30;94.60
27368;DHT22;14839;48.106;11.618;2023-03-03T18:30:58;4.30;94.60
27368;DHT22;14839;48.106;11.618;2023-03-03T18:33:42;4.30;94.60
27368;DHT22;14839;48.106;11.618;2023-03-03T18:38:55;4.10;94.60
27368;DHT22;14839;48.106;11.618;2023-03-03T18:41:32;4.00;94.60
27368;DHT22;14839;48.106;11.618;2023-03-03T18:44:28;3.90;94.60
27368;DHT22;14839;48.106;11.618;2023-03-03T18:46:55;3.80;94.60
27368;DHT22;14839;48.106;11.618;2023-03-03T18:57:35;3.60;94.60
27368;DHT22;14839;48.106;11.618;2023-03-03T19:00:26;3.50;94.60
27368;DHT22;14839;48.106;11.618;2023-03-03T19:02:54;3.50;94.60
27368;DHT22;14839;48.106;11.618;2023-03-03T19:05:33;3.40;94.60
27368;DHT22;14839;48.106;11.618;2023-03-03T19:11:42;3.30;94.60
27368;DHT22;14839;48.106;11.618;2023-03-03T19:16:45;3.10;94.60
27368;DHT22;14839;48.106;11.618;2023-03-03T19:19:16;3.00;94.60
27368;DHT22;14839;48.106;11.618;2023-03-03T19:21:44;2.90;94.60
27368;DHT22;14839;48.106;11.618;2023-03-03T19:35:07;2.70;94.60
27368;DHT22;14839;48.106;11.618;2023-03-03T19:37:52;2.60;94.60
27368;DHT22;14839;48.106;11.618;2023-03-03T19:48:45;2.30;94.60
27368;DHT22;14839;48.106;11.618;2023-03-03T19:56:55;2.20;94.60
27368;DHT22;14839;48.106;11.618;2023-03-03T19:59:42;2.10;94.60
27368;DHT22;14839;48.106;11.618;2023-03-03T20:02:40;2.00;94.60
27368;DHT22;14839;48.106;11.618;2023-03-03T20:08:00;1.90;94.60
27368;DHT22;14839;48.106;11.618;2023-03-03T20:10:49;1.80;94.60
27368;DHT22;14839;48.106;11.618;2023-03-03T20:18:52;1.70;94.60
27368;DHT22;14839;48.106;11.618;2023-03-03T20:27:16;1.60;94.60
27368;DHT22;14839;48.106;11.618;2023-03-03T20:41:40;1.70;94.60
27368;DHT22;14839;48.106;11.618;2023-03-03T20:46:48;1.60;94.60
27368;DHT22;14839;48.106;11.618;2023-03-03T20:49:21;1.50;94.60
27368;DHT22;14839;48.106;11.618;2023-03-03T20:52:00;1.50;94.60
27368;DHT22;14839;48.106;11.618;2023-03-03T21:00:12;1.40;94.60
27368;DHT22;14839;48.106;11.618;2023-03-03T21:02:57;1.30;94.60
27368;DHT22;14839;48.106;11.618;2023-03-03T21:05:26;1.30;94.60
27368;DHT22;14839;48.106;11.618;2023-03-03T21:07:57;1.30;94.60
27368;DHT22;14839;48.106;11.618;2023-03-03T21:10:28;1.30;94.60
27368;DHT22;14839;48.106;11.618;2023-03-03T21:12:56;1.30;94.60
27368;DHT22;14839;48.106;11.618;2023-03-03T21:15:31;1.30;94.60
27368;DHT22;14839;48.106;11.618;2023-03-03T21:17:58;1.30;94.60
27368;DHT22;14839;48.106;11.618;2023-03-03T21:22:50;1.30;94.60
27368;DHT22;14839;48.106;11.618;2023-03-03T21:25:56;1.30;94.60
27368;DHT22;14839;48.106;11.618;2023-03-03T21:28:22;1.30;94.60
27368;DHT22;14839;48.106;11.618;2023-03-03T21:33:55;1.30;94.60
27368;DHT22;14839;48.106;11.618;2023-03-03T21:39:22;1.40;94.60
27368;DHT22;14839;48.106;11.618;2023-03-03T21:44:47;1.20;94.60
27368;DHT22;14839;48.106;11.618;2023-03-03T21:47:21;1.20;94.60
27368;DHT22;14839;48.106;11.618;2023-03-03T21:49:49;1.10;94.60
27368;DHT22;14839;48.106;11.618;2023-03-03T21:52:17;1.10;94.60
27368;DHT22;14839;48.106;11.618;2023-03-03T21:54:44;1.10;94.60
27368;DHT22;14839;48.106;11.618;2023-03-03T21:57:10;1.10;94.60
27368;DHT22;14839;48.106;11.618;2023-03-03T21:59:36;1.00;94.60
27368;DHT22;14839;48.106;11.618;2023-03-03T22:02:02;1.00;94.60
27368;DHT22;14839;48.106;11.618;2023-03-03T22:04:28;1.00;94.60
27368;DHT22;14839;48.106;11.618;2023-03-03T22:06:54;0.90;94.60
27368;DHT22;14839;48.106;11.618;2023-03-03T22:09:20;0.90;94.60
27368;DHT22;14839;48.106;11.618;2023-03-03T22:11:46;0.90;94.60
27368;DHT22;14839;48.106;11.618;2023-03-03T22:14:11;0.80;94.60
27368;DHT22;14839;48.106;11.618;2023-03-03T22:16:37;0.80;94.60
27368;DHT22;14839;48.106;11.618;2023-03-03T22:19:03;0.80;94.60
27368;DHT22;14839;48.106;11.618;2023-03-03T22:21:29;0.70;94.60
27368;DHT22;14839;48.106;11.618;2023-03-03T22:23:56;0.80;94.60
27368;DHT22;14839;48.106;11.618;2023-03-03T22:26:22;0.70;94.60
27368;DHT22;14839;48.106;11.618;2023-03-03T22:28:47;0.70;94.60
27368;DHT22;14839;48.106;11.618;2023-03-03T22:31:14;0.70;94.60
27368;DHT22;14839;48.106;11.618;2023-03-03T22:33:40;0.70;94.60
27368;DHT22;14839;48.106;11.618;2023-03-03T22:36:06;0.70;94.60
27368;DHT22;14839;48.106;11.618;2023-03-03T22:38:32;0.70;94.60
27368;DHT22;14839;48.106;11.618;2023-03-03T22:41:07;0.60;94.60
27368;DHT22;14839;48.106;11.618;2023-03-03T22:43:33;0.60;94.60
27368;DHT22;14839;48.106;11.618;2023-03-03T22:45:59;0.70;94.60
27368;DHT22;14839;48.106;11.618;2023-03-03T22:48:26;0.60;94.60
27368;DHT22;14839;48.106;11.618;2023-03-03T22:50:52;0.70;94.60
27368;DHT22;14839;48.106;11.618;2023-03-03T22:53:18;0.70;94.60
27368;DHT22;14839;48.106;11.618;2023-03-03T22:55:44;0.70;94.60
27368;DHT22;14839;48.106;11.618;2023-03-03T22:58:11;0.70;94.60
